Willard, Montana
Current Conditions -  °F | °C
As of 5:51 PM on Wednesday 22 Oct 2014 (Local Time) from KBHK Reporting Station
Clear Clear  
Wind Chill: 52°   Ceiling: Unl
Heat Index: 52°   Visibility: 10mi
Dew Point: 30°   Wind: 7mph
Humidity: 43%   Direction: 270°W
Pressure: 29.94"   Gusts: NA
Location:  46.19°N, 104.38°W
Report Text: KBHK 222351Z AUTO 27006KT 10SM CLR 11/M01 A2994 RMK AO2 SLP140 T01111011 10167 20111 53005
Loading
Personal Weather Stations






























Interactive Weather Map
Tropical Storm Tracking
New forecast layout! Learn more

10-Day Weather Forecast

Advertisements
Track Severe Weather on mobile